Time;durP1;ratioP1;P1;durP2;ratioP2;P2;SDS_P1;SDS_P2;PMS_P1;PMS_P2;Temp;Humidity;BMP_temperature;BMP_pressure;BME280_temperature;BME280_humidity;BME280_pressure;Samples;Min_cycle;Max_cycle;Signal;HPM_P1;HPM_P2
2021/01/16 00:00:45;;;;;;;51.93;28.20;;;-2.80;98.60;;;;;;5122365;28;20168;-80
2021/01/16 00:03:12;;;;;;;48.53;27.80;;;-3.00;98.80;;;;;;5122496;28;20473;-80
2021/01/16 00:05:39;;;;;;;48.00;27.95;;;-3.00;98.90;;;;;;5121796;28;20681;-80
2021/01/16 00:08:07;;;;;;;49.08;29.05;;;-3.00;99.10;;;;;;5123594;28;20180;-80
2021/01/16 00:10:36;;;;;;;48.08;26.50;;;-3.00;99.10;;;;;;5123890;28;20180;-80
2021/01/16 00:13:02;;;;;;;51.05;28.17;;;-3.00;99.20;;;;;;5122303;28;20208;-80
2021/01/16 00:15:28;;;;;;;48.40;26.80;;;-3.00;99.20;;;;;;5121218;28;20179;-80
2021/01/16 00:18:01;;;;;;;50.40;26.65;;;-3.00;99.30;;;;;;5120851;28;20192;-81
2021/01/16 00:20:27;;;;;;;42.65;26.00;;;-3.10;99.20;;;;;;5120092;28;20168;-80
2021/01/16 00:22:53;;;;;;;47.83;25.92;;;-3.10;99.30;;;;;;5120800;28;20272;-80
2021/01/16 00:25:19;;;;;;;46.33;26.75;;;-3.10;99.50;;;;;;5120168;28;20179;-80
2021/01/16 00:27:45;;;;;;;47.07;27.00;;;-3.10;99.30;;;;;;5119773;28;20187;-80
2021/01/16 00:30:11;;;;;;;46.40;28.63;;;-3.10;99.30;;;;;;5117920;28;20172;-80
2021/01/16 00:32:38;;;;;;;48.63;26.90;;;-3.10;99.50;;;;;;5119849;28;20427;-80
2021/01/16 00:35:09;;;;;;;51.53;28.15;;;-3.10;99.10;;;;;;5119395;28;20176;-80
2021/01/16 00:37:36;;;;;;;46.17;27.73;;;-3.20;99.10;;;;;;5118050;28;20183;-80
2021/01/16 00:40:11;;;;;;;54.00;28.92;;;-3.20;99.10;;;;;;5118992;28;20172;-80
2021/01/16 00:42:48;;;;;;;46.33;25.73;;;-3.30;98.80;;;;;;5117275;28;20627;-80
2021/01/16 00:45:15;;;;;;;51.67;30.42;;;-3.30;99.20;;;;;;5115426;28;20175;-78
2021/01/16 00:47:45;;;;;;;58.78;31.58;;;-3.40;99.20;;;;;;5114995;28;20176;-79
2021/01/16 00:50:13;;;;;;;55.97;30.88;;;-3.30;99.20;;;;;;5116299;28;20179;-79
2021/01/16 00:52:39;;;;;;;62.40;32.40;;;-3.40;99.40;;;;;;5115960;28;20235;-79
2021/01/16 00:55:07;;;;;;;53.55;29.23;;;-3.30;99.40;;;;;;5116448;28;20208;-79
2021/01/16 00:57:32;;;;;;;43.88;25.08;;;-3.40;99.20;;;;;;5116074;28;20183;-80
2021/01/16 00:59:58;;;;;;;51.90;28.97;;;-3.30;99.20;;;;;;5114992;28;20180;-80
2021/01/16 01:02:24;;;;;;;48.23;26.63;;;-3.20;99.10;;;;;;5116793;28;20184;-79
2021/01/16 01:04:50;;;;;;;48.93;28.30;;;-3.10;99.00;;;;;;5115656;28;20440;-79
2021/01/16 01:07:17;;;;;;;72.63;38.60;;;-3.20;99.00;;;;;;5114492;28;20180;-79
2021/01/16 01:09:44;;;;;;;109.93;52.35;;;-3.20;98.80;;;;;;5115900;28;20685;-80
2021/01/16 01:12:11;;;;;;;58.30;31.30;;;-3.20;98.90;;;;;;5116360;28;20175;-79
2021/01/16 01:14:37;;;;;;;54.90;31.17;;;-3.20;98.70;;;;;;5116516;28;20196;-79
2021/01/16 01:17:16;;;;;;;50.57;27.53;;;-3.30;98.90;;;;;;5115995;28;20186;-80
2021/01/16 01:19:42;;;;;;;45.70;25.83;;;-3.40;98.30;;;;;;5115456;28;20156;-79
2021/01/16 01:22:09;;;;;;;49.53;27.90;;;-3.30;98.60;;;;;;5116101;28;20189;-79
2021/01/16 01:24:35;;;;;;;45.97;27.30;;;-3.30;98.40;;;;;;5116386;28;20408;-79
2021/01/16 01:27:00;;;;;;;41.25;27.77;;;-3.40;97.90;;;;;;5118191;28;20183;-79
2021/01/16 01:29:26;;;;;;;51.67;28.57;;;-3.40;98.10;;;;;;5118411;28;20656;-79
2021/01/16 01:31:52;;;;;;;47.83;26.13;;;-3.50;98.70;;;;;;5118436;28;20188;-80
2021/01/16 01:34:18;;;;;;;48.83;27.23;;;-3.50;98.60;;;;;;5118507;28;20199;-80
2021/01/16 01:36:43;;;;;;;51.40;30.00;;;-3.70;98.40;;;;;;5121018;28;20213;-80
2021/01/16 01:39:09;;;;;;;48.43;28.07;;;-3.80;98.70;;;;;;5121044;28;20577;-80
2021/01/16 01:41:38;;;;;;;45.57;25.20;;;-3.70;98.70;;;;;;5119193;28;20184;-80
2021/01/16 01:44:05;;;;;;;45.05;27.63;;;-3.80;98.50;;;;;;5120665;28;20640;-80
2021/01/16 01:46:32;;;;;;;49.78;26.92;;;-3.80;98.50;;;;;;5120460;28;20201;-80
2021/01/16 01:48:58;;;;;;;49.00;27.27;;;-3.80;98.30;;;;;;5120485;28;20580;-80
2021/01/16 01:51:24;;;;;;;42.63;26.53;;;-3.80;98.40;;;;;;5120078;28;20208;-80
2021/01/16 01:53:54;;;;;;;47.13;27.40;;;-3.80;98.50;;;;;;5120503;28;20513;-80
2021/01/16 01:56:21;;;;;;;46.20;27.05;;;-3.70;98.80;;;;;;5120094;28;20180;-80
2021/01/16 01:58:47;;;;;;;52.70;29.33;;;-3.70;98.60;;;;;;5121471;28;20172;-80
2021/01/16 02:01:13;;;;;;;46.83;27.77;;;-3.70;98.40;;;;;;5121302;28;20537;-80
2021/01/16 02:03:41;;;;;;;51.55;27.70;;;-3.80;98.20;;;;;;5119168;28;20203;-80
2021/01/16 02:06:07;;;;;;;51.30;28.30;;;-3.70;98.40;;;;;;5120994;28;20172;-80
2021/01/16 02:08:34;;;;;;;47.40;27.90;;;-3.60;98.30;;;;;;5120870;28;20292;-80
2021/01/16 02:11:00;;;;;;;44.05;28.20;;;-3.80;97.70;;;;;;5121299;28;20404;-80
2021/01/16 02:13:26;;;;;;;57.00;30.50;;;-3.80;98.20;;;;;;5121702;28;20302;-80
2021/01/16 02:16:12;;;;;;;69.27;36.33;;;-3.90;98.50;;;;;;5123033;28;20404;-80
2021/01/16 02:18:41;;;;;;;64.50;37.28;;;-3.90;98.70;;;;;;5123311;28;20187;-80
2021/01/16 02:21:09;;;;;;;77.72;43.80;;;-3.90;98.40;;;;;;5123251;28;20199;-80
2021/01/16 02:23:45;;;;;;;70.43;40.58;;;-4.10;99.20;;;;;;5123902;28;20267;-80
2021/01/16 02:26:17;;;;;;;65.00;36.50;;;-3.80;98.90;;;;;;5122204;28;20639;-79
2021/01/16 02:28:56;;;;;;;64.95;36.67;;;-3.80;97.90;;;;;;5124970;28;20175;-80
2021/01/16 02:31:26;;;;;;;65.40;39.67;;;-3.80;97.70;;;;;;5125260;27;20179;-80
2021/01/16 02:33:54;;;;;;;81.00;44.85;;;-3.80;97.60;;;;;;5125727;28;20206;-80
2021/01/16 02:37:00;;;;;;;82.68;44.65;;;-4.00;98.10;;;;;;5125869;28;20179;-80
2021/01/16 02:39:45;;;;;;;76.43;44.50;;;-3.90;98.40;;;;;;5113426;28;20628;-80
2021/01/16 02:42:19;;;;;;;75.63;42.75;;;-3.80;98.60;;;;;;5104927;28;20696;-80
2021/01/16 02:45:06;;;;;;;68.15;40.83;;;-3.80;98.20;;;;;;5106704;28;20184;-80
2021/01/16 02:47:54;;;;;;;77.68;43.25;;;-3.90;98.30;;;;;;5108937;28;20232;-81
2021/01/16 02:50:22;;;;;;;76.00;44.38;;;-4.10;98.10;;;;;;5107708;28;20187;-81
2021/01/16 02:52:49;;;;;;;78.07;44.80;;;-4.20;97.20;;;;;;5109117;28;20232;-80
2021/01/16 02:55:16;;;;;;;81.90;47.28;;;-4.20;98.00;;;;;;5110300;28;20176;-80
2021/01/16 02:57:42;;;;;;;78.43;43.10;;;-4.30;98.30;;;;;;5108806;28;20173;-80
2021/01/16 03:00:10;;;;;;;75.77;45.63;;;-4.40;98.00;;;;;;5108498;28;20272;-80
2021/01/16 03:02:36;;;;;;;87.32;46.92;;;-4.30;98.40;;;;;;5109674;28;20490;-80
2021/01/16 03:05:02;;;;;;;84.47;50.20;;;-4.40;98.50;;;;;;5110653;28;20195;-80
2021/01/16 03:07:31;;;;;;;100.05;56.58;;;-4.40;97.60;;;;;;5113408;28;20168;-80
2021/01/16 03:09:58;;;;;;;114.88;58.90;;;-4.40;98.60;;;;;;5113644;28;20520;-80
2021/01/16 03:12:24;;;;;;;115.15;60.58;;;-4.40;98.30;;;;;;5111803;28;20181;-80
2021/01/16 03:14:54;;;;;;;99.13;54.25;;;-4.30;98.70;;;;;;5113552;28;20207;-80
2021/01/16 03:17:42;;;;;;;77.25;44.53;;;-4.40;98.30;;;;;;5114441;28;20220;-81
2021/01/16 03:20:08;;;;;;;78.32;42.13;;;-4.40;98.40;;;;;;5115310;28;20172;-80
2021/01/16 03:22:34;;;;;;;82.03;46.05;;;-4.40;98.80;;;;;;5114416;28;20204;-80
2021/01/16 03:24:59;;;;;;;84.47;48.30;;;-4.50;99.00;;;;;;5112307;28;20196;-80
2021/01/16 03:27:26;;;;;;;72.60;41.37;;;-4.40;98.50;;;;;;5114609;28;20180;-80
2021/01/16 03:29:52;;;;;;;66.07;35.53;;;-4.40;98.50;;;;;;5114044;28;20165;-80
2021/01/16 03:32:18;;;;;;;55.13;30.88;;;-4.40;98.00;;;;;;5113822;28;20259;-80
2021/01/16 03:34:46;;;;;;;62.97;33.42;;;-4.40;98.40;;;;;;5119133;28;20220;-80
2021/01/16 03:37:12;;;;;;;70.35;39.55;;;-4.30;98.60;;;;;;5135503;28;20164;-80
2021/01/16 03:39:39;;;;;;;67.40;39.38;;;-4.30;98.40;;;;;;5118751;28;20206;-80
2021/01/16 03:45:27;;;;;;;65.38;38.08;;;-4.50;97.90;;;;;;5115485;28;20235;-80
2021/01/16 03:47:52;;;;;;;73.43;41.53;;;-4.60;97.60;;;;;;5114999;28;20629;-80
2021/01/16 03:50:28;;;;;;;75.77;41.80;;;-4.60;98.20;;;;;;5112151;28;20217;-80
2021/01/16 03:52:54;;;;;;;72.43;45.17;;;-4.60;98.80;;;;;;5112291;28;20232;-80
2021/01/16 03:55:20;;;;;;;90.37;52.07;;;-4.50;98.70;;;;;;5114189;28;20606;-80
2021/01/16 03:57:46;;;;;;;73.73;44.97;;;-4.60;98.40;;;;;;5112669;28;20185;-80
2021/01/16 04:00:11;;;;;;;118.07;61.03;;;-4.50;98.20;;;;;;5114017;28;20176;-80
2021/01/16 04:02:38;;;;;;;90.90;52.42;;;-4.60;98.00;;;;;;5113371;28;20172;-80
2021/01/16 04:05:04;;;;;;;67.57;38.47;;;-4.50;97.70;;;;;;5114320;28;20160;-80
2021/01/16 04:07:30;;;;;;;72.18;40.15;;;-4.50;97.40;;;;;;5113277;28;20198;-80
2021/01/16 04:13:18;;;;;;;61.85;35.22;;;-4.60;97.90;;;;;;5113698;28;20211;-80
2021/01/16 04:15:44;;;;;;;65.10;37.17;;;-4.60;98.00;;;;;;5114165;28;20235;-80
2021/01/16 04:18:11;;;;;;;69.57;38.40;;;-4.60;98.30;;;;;;5112796;28;20203;-80
2021/01/16 04:20:37;;;;;;;63.70;36.35;;;-4.50;97.70;;;;;;5112705;28;20615;-80
2021/01/16 04:23:03;;;;;;;67.40;38.45;;;-4.60;97.50;;;;;;5114659;28;20171;-80
2021/01/16 04:25:29;;;;;;;60.47;36.37;;;-4.50;97.20;;;;;;5111752;28;20177;-80
2021/01/16 04:27:54;;;;;;;60.43;37.20;;;-4.60;98.00;;;;;;5114986;28;20161;-80
2021/01/16 04:30:20;;;;;;;67.83;35.13;;;-4.50;97.80;;;;;;5114768;28;20184;-80
2021/01/16 04:32:49;;;;;;;71.22;35.08;;;-4.50;97.70;;;;;;5111738;28;20189;-80
2021/01/16 04:35:14;;;;;;;55.35;31.52;;;-4.40;97.90;;;;;;5123565;28;20211;-80
2021/01/16 04:37:43;;;;;;;59.20;33.80;;;-4.40;98.20;;;;;;5135451;28;20182;-80
2021/01/16 04:40:09;;;;;;;51.00;31.20;;;-4.20;97.70;;;;;;5114218;27;20180;-80
2021/01/16 04:42:41;;;;;;;52.25;29.83;;;-4.30;97.70;;;;;;5111956;28;20184;-80
2021/01/16 04:45:08;;;;;;;49.08;29.42;;;-4.40;97.60;;;;;;5113729;28;20640;-80
2021/01/16 04:47:34;;;;;;;52.95;30.33;;;-4.30;98.40;;;;;;5114107;28;20230;-80
2021/01/16 04:50:01;;;;;;;49.45;30.23;;;-4.30;97.40;;;;;;5111913;28;20176;-80
2021/01/16 04:52:33;;;;;;;47.63;28.42;;;-4.20;97.80;;;;;;5111330;28;20621;-79
2021/01/16 04:55:00;;;;;;;44.50;25.20;;;-4.20;97.70;;;;;;5113067;28;20176;-80
2021/01/16 04:57:28;;;;;;;43.20;24.67;;;-4.10;97.50;;;;;;5111445;28;20180;-79
2021/01/16 04:59:54;;;;;;;41.35;23.77;;;-4.00;97.40;;;;;;5109869;28;20179;-80
2021/01/16 05:02:23;;;;;;;34.85;21.98;;;-4.10;97.30;;;;;;5109433;28;20180;-80
2021/01/16 05:04:53;;;;;;;37.55;23.45;;;-4.10;97.40;;;;;;5109714;28;20623;-80
2021/01/16 05:07:19;;;;;;;42.17;23.25;;;-4.10;97.40;;;;;;5110464;28;20187;-79
2021/01/16 05:09:46;;;;;;;42.03;23.38;;;-4.10;97.50;;;;;;5111373;28;20156;-79
2021/01/16 05:12:30;;;;;;;39.40;21.20;;;-4.00;97.80;;;;;;5109741;28;20309;-80
2021/01/16 05:15:18;;;;;;;34.40;20.20;;;-4.00;97.60;;;;;;5109058;28;20175;-79
2021/01/16 05:17:54;;;;;;;37.25;22.10;;;-4.00;97.90;;;;;;5109191;28;20279;-80
2021/01/16 05:20:23;;;;;;;42.60;24.35;;;-3.90;97.70;;;;;;5112229;28;20234;-79
2021/01/16 05:22:49;;;;;;;38.67;25.10;;;-3.90;97.70;;;;;;5109231;28;20188;-79
2021/01/16 05:25:16;;;;;;;35.40;22.40;;;-3.90;97.70;;;;;;5110947;28;20169;-79
2021/01/16 05:27:58;;;;;;;34.25;21.38;;;-3.90;97.40;;;;;;5110070;28;20188;-79
2021/01/16 05:30:24;;;;;;;34.15;22.17;;;-3.90;97.50;;;;;;5110990;28;20157;-80
2021/01/16 05:32:50;;;;;;;36.28;20.40;;;-3.90;97.60;;;;;;5110800;28;20236;-79
2021/01/16 05:35:17;;;;;;;34.57;19.87;;;-3.90;97.20;;;;;;5120819;28;20179;-79
2021/01/16 05:37:46;;;;;;;30.80;19.05;;;-3.90;97.20;;;;;;5129819;28;20191;-79
2021/01/16 05:40:13;;;;;;;34.38;20.25;;;-4.00;97.30;;;;;;5130904;28;20168;-79
2021/01/16 05:42:39;;;;;;;40.05;21.02;;;-4.00;97.30;;;;;;5130974;28;20180;-79
2021/01/16 05:45:11;;;;;;;31.52;20.15;;;-4.10;97.30;;;;;;5129972;28;20159;-79
2021/01/16 05:47:41;;;;;;;36.95;19.83;;;-4.10;97.50;;;;;;5130332;28;20191;-80
2021/01/16 05:50:09;;;;;;;28.80;18.70;;;-4.20;97.40;;;;;;5129956;28;20140;-79
2021/01/16 05:52:39;;;;;;;39.00;19.13;;;-4.20;97.50;;;;;;5129971;28;20203;-80
2021/01/16 05:55:06;;;;;;;31.40;19.83;;;-4.20;97.60;;;;;;5128385;28;20204;-79
2021/01/16 05:57:32;;;;;;;32.78;19.67;;;-4.20;97.50;;;;;;5126835;28;20164;-80
2021/01/16 06:00:00;;;;;;;32.63;18.53;;;-4.20;97.50;;;;;;5129591;28;20175;-79
2021/01/16 06:02:31;;;;;;;32.83;19.95;;;-4.30;97.40;;;;;;5127493;28;20406;-79
2021/01/16 06:04:57;;;;;;;36.67;21.25;;;-4.30;97.50;;;;;;5130229;28;20167;-80
2021/01/16 06:07:24;;;;;;;35.17;21.23;;;-4.30;97.40;;;;;;5128241;28;20236;-80
2021/01/16 06:10:00;;;;;;;35.10;20.75;;;-4.30;97.70;;;;;;5128629;28;20171;-79
2021/01/16 06:12:27;;;;;;;33.00;20.05;;;-4.30;97.40;;;;;;5129032;28;20184;-79
2021/01/16 06:15:01;;;;;;;31.48;18.45;;;-4.30;97.40;;;;;;5130804;28;20200;-80
2021/01/16 06:17:31;;;;;;;31.35;18.80;;;-4.20;97.40;;;;;;5133882;28;20210;-79
2021/01/16 06:20:01;;;;;;;33.22;20.02;;;-4.30;97.50;;;;;;5130673;28;20174;-79
2021/01/16 06:22:33;;;;;;;30.88;19.23;;;-4.30;97.60;;;;;;5132270;28;20187;-79
2021/01/16 06:25:01;;;;;;;29.73;18.60;;;-4.30;97.80;;;;;;5130230;28;20199;-79
2021/01/16 06:27:27;;;;;;;34.08;19.33;;;-4.30;97.50;;;;;;5130648;28;20188;-79
2021/01/16 06:30:03;;;;;;;31.07;19.60;;;-4.20;97.80;;;;;;5130878;28;20192;-79
2021/01/16 06:32:29;;;;;;;32.72;19.05;;;-4.20;97.80;;;;;;5133176;28;20627;-80
2021/01/16 06:35:11;;;;;;;32.28;18.95;;;-4.20;97.90;;;;;;5129793;28;20211;-79
2021/01/16 06:37:51;;;;;;;33.72;19.77;;;-4.20;98.30;;;;;;5129533;28;20229;-79
2021/01/16 06:40:32;;;;;;;38.58;20.20;;;-4.10;98.10;;;;;;5130206;28;20208;-79
2021/01/16 06:42:59;;;;;;;35.97;21.77;;;-4.10;98.50;;;;;;5129863;28;20215;-79
2021/01/16 06:45:27;;;;;;;36.42;24.10;;;-4.00;97.90;;;;;;5131465;27;20203;-80
2021/01/16 06:47:58;;;;;;;41.08;22.85;;;-4.00;98.30;;;;;;5130912;28;20215;-80
2021/01/16 06:50:24;;;;;;;35.28;20.13;;;-4.00;98.10;;;;;;5130778;28;20647;-79
2021/01/16 06:52:50;;;;;;;33.78;19.80;;;-4.00;98.20;;;;;;5131944;28;20780;-79
2021/01/16 06:55:17;;;;;;;49.23;28.83;;;-4.00;97.90;;;;;;5130628;28;20259;-79
2021/01/16 06:57:43;;;;;;;60.28;38.28;;;-4.00;98.00;;;;;;5131419;28;20183;-79
2021/01/16 07:00:10;;;;;;;41.60;29.30;;;-3.90;98.10;;;;;;5132057;28;20248;-80
2021/01/16 07:02:37;;;;;;;36.53;22.42;;;-3.90;98.20;;;;;;5130810;28;20762;-80
2021/01/16 07:05:21;;;;;;;42.83;21.40;;;-3.80;98.20;;;;;;5133836;28;20664;-80
2021/01/16 07:07:51;;;;;;;32.90;19.77;;;-3.70;98.20;;;;;;5135194;28;20188;-80
2021/01/16 07:10:18;;;;;;;36.35;20.90;;;-3.60;97.90;;;;;;5134241;28;20175;-80
2021/01/16 07:12:47;;;;;;;48.28;36.33;;;-3.60;97.90;;;;;;5135294;27;20195;-80
2021/01/16 07:15:13;;;;;;;45.47;31.92;;;-3.60;97.90;;;;;;5133132;28;20212;-79
2021/01/16 07:17:39;;;;;;;39.78;22.75;;;-3.40;97.60;;;;;;5132170;28;20180;-79
2021/01/16 07:20:07;;;;;;;31.90;19.85;;;-3.40;97.60;;;;;;5131679;28;20183;-80
2021/01/16 07:22:38;;;;;;;34.03;21.00;;;-3.20;97.50;;;;;;5133646;28;20187;-80
2021/01/16 07:25:06;;;;;;;35.45;22.88;;;-3.10;97.10;;;;;;5133328;28;20195;-80
2021/01/16 07:27:34;;;;;;;31.05;20.60;;;-3.00;97.10;;;;;;5129430;28;20203;-79
2021/01/16 07:30:01;;;;;;;33.78;22.25;;;-2.90;97.10;;;;;;5131553;28;20179;-80
2021/01/16 07:32:42;;;;;;;32.85;21.17;;;-2.90;97.00;;;;;;5131900;28;20194;-80
2021/01/16 07:35:19;;;;;;;38.08;23.52;;;-2.80;96.80;;;;;;5131491;28;20344;-80
2021/01/16 07:37:47;;;;;;;34.90;21.80;;;-2.80;96.70;;;;;;5128615;28;20176;-80
2021/01/16 07:40:22;;;;;;;38.45;22.20;;;-2.70;96.80;;;;;;5110135;28;20180;-80
2021/01/16 07:42:59;;;;;;;31.80;19.73;;;-2.60;96.80;;;;;;5107803;28;20200;-80
2021/01/16 07:45:31;;;;;;;34.10;21.77;;;-2.40;96.60;;;;;;5104896;28;20644;-81
2021/01/16 07:48:05;;;;;;;33.55;19.75;;;-2.30;96.30;;;;;;5106686;28;20184;-80
2021/01/16 07:50:35;;;;;;;41.97;24.45;;;-2.00;95.70;;;;;;5104976;28;20225;-80
2021/01/16 07:53:06;;;;;;;37.65;22.27;;;-1.80;95.20;;;;;;5102540;28;20233;-80
2021/01/16 07:55:35;;;;;;;36.67;21.90;;;-1.60;94.80;;;;;;5102151;28;20161;-80
2021/01/16 07:58:42;;;;;;;29.95;20.75;;;-1.40;94.50;;;;;;5099170;28;20180;-80
2021/01/16 08:01:30;;;;;;;29.13;21.65;;;-1.00;93.90;;;;;;5100178;28;20211;-80
2021/01/16 08:04:19;;;;;;;27.33;19.38;;;-0.80;93.20;;;;;;5103989;28;20177;-79
2021/01/16 08:07:08;;;;;;;30.42;19.40;;;-0.60;93.10;;;;;;5104367;28;20188;-79
2021/01/16 08:09:45;;;;;;;24.38;15.00;;;-0.20;92.10;;;;;;5105076;28;20161;-80
2021/01/16 08:12:12;;;;;;;24.80;16.30;;;0.20;91.30;;;;;;5109739;28;20184;-80
2021/01/16 08:14:39;;;;;;;23.48;16.27;;;0.60;90.00;;;;;;5108121;28;20291;-80
2021/01/16 08:17:09;;;;;;;24.02;16.38;;;0.90;87.50;;;;;;5110954;28;20297;-80
2021/01/16 08:20:00;;;;;;;26.25;17.52;;;1.10;85.90;;;;;;5109851;28;20553;-80
2021/01/16 08:22:39;;;;;;;21.85;15.88;;;1.40;84.60;;;;;;5111164;28;20169;-80
2021/01/16 08:25:07;;;;;;;25.40;18.40;;;1.50;84.30;;;;;;5113833;28;20716;-80
2021/01/16 08:27:36;;;;;;;26.27;19.02;;;1.40;83.90;;;;;;5130095;28;20184;-80
2021/01/16 08:30:41;;;;;;;26.85;18.80;;;1.30;81.50;;;;;;5131008;27;20232;-79
2021/01/16 08:33:10;;;;;;;32.33;19.55;;;1.20;83.20;;;;;;5128815;28;20579;-80
2021/01/16 08:35:48;;;;;;;26.50;17.35;;;1.20;83.60;;;;;;5132639;28;20168;-80
2021/01/16 08:38:17;;;;;;;29.67;18.60;;;1.30;83.30;;;;;;5134050;28;20197;-80
2021/01/16 08:41:08;;;;;;;28.20;18.58;;;1.30;82.80;;;;;;5132636;28;20186;-80
2021/01/16 08:43:38;;;;;;;26.83;18.80;;;1.30;82.30;;;;;;5133743;28;20179;-80
2021/01/16 08:46:07;;;;;;;36.67;25.48;;;1.30;83.00;;;;;;5132353;28;20197;-80
2021/01/16 08:48:35;;;;;;;28.63;21.48;;;1.40;81.30;;;;;;5131615;28;20666;-80
2021/01/16 08:51:01;;;;;;;42.05;27.55;;;1.40;78.60;;;;;;5131981;28;20172;-81
2021/01/16 08:53:28;;;;;;;32.20;22.30;;;1.20;81.10;;;;;;5132107;27;20273;-80
2021/01/16 08:55:54;;;;;;;28.02;19.83;;;1.30;81.80;;;;;;5132484;28;20226;-81
2021/01/16 08:58:28;;;;;;;40.13;25.73;;;1.20;79.90;;;;;;5128792;28;20682;-81
2021/01/16 09:00:56;;;;;;;40.47;27.60;;;1.20;77.00;;;;;;5131484;28;20172;-80
2021/01/16 09:03:25;;;;;;;36.75;22.02;;;1.20;76.30;;;;;;5129804;28;20176;-80
2021/01/16 09:06:01;;;;;;;22.90;15.60;;;1.20;77.50;;;;;;5130612;28;20164;-80
2021/01/16 09:08:28;;;;;;;21.50;14.90;;;1.30;79.30;;;;;;5128337;28;20217;-80
2021/01/16 09:11:09;;;;;;;21.15;15.40;;;1.30;76.90;;;;;;5131018;28;20181;-81
2021/01/16 09:13:41;;;;;;;24.05;16.83;;;1.20;79.90;;;;;;5129085;28;20200;-81
2021/01/16 09:16:07;;;;;;;21.98;15.48;;;1.60;76.20;;;;;;5126422;28;20152;-80
2021/01/16 09:18:32;;;;;;;22.50;14.73;;;1.80;75.90;;;;;;5128128;28;20164;-81
2021/01/16 09:21:00;;;;;;;23.60;17.00;;;1.90;75.10;;;;;;5130388;28;20259;-80
2021/01/16 09:23:30;;;;;;;22.10;15.68;;;2.30;74.80;;;;;;5129339;28;20176;-81
2021/01/16 09:26:04;;;;;;;24.65;17.50;;;2.80;73.70;;;;;;5127947;28;20183;-81
2021/01/16 09:28:56;;;;;;;21.85;13.95;;;3.20;71.60;;;;;;5128495;28;20171;-81
2021/01/16 09:31:42;;;;;;;21.60;14.43;;;3.50;70.80;;;;;;5120510;28;20251;-80
2021/01/16 09:34:17;;;;;;;25.17;19.15;;;3.90;67.40;;;;;;5120077;28;20204;-80
2021/01/16 09:36:45;;;;;;;24.20;17.45;;;4.10;65.80;;;;;;5117381;28;20679;-80
2021/01/16 09:39:29;;;;;;;20.02;15.02;;;4.30;65.70;;;;;;5115268;28;20643;-80
2021/01/16 09:42:23;;;;;;;23.75;15.25;;;4.60;62.40;;;;;;5114794;28;20172;-80
2021/01/16 09:44:53;;;;;;;19.92;14.00;;;4.60;64.40;;;;;;5112776;28;20199;-80
2021/01/16 09:47:25;;;;;;;19.70;14.90;;;4.70;61.40;;;;;;5114987;28;20188;-79
2021/01/16 09:49:51;;;;;;;19.27;15.65;;;5.00;60.50;;;;;;5118880;28;20203;-79
2021/01/16 09:52:18;;;;;;;20.40;15.13;;;5.10;59.50;;;;;;5118178;28;20300;-79
2021/01/16 09:54:45;;;;;;;18.33;13.60;;;5.10;59.90;;;;;;5116797;28;20207;-79
2021/01/16 09:57:11;;;;;;;19.60;14.18;;;4.80;60.00;;;;;;5119076;28;20231;-80
2021/01/16 09:59:37;;;;;;;22.98;15.57;;;4.50;59.90;;;;;;5120245;27;20203;-80
2021/01/16 10:02:13;;;;;;;19.63;14.93;;;4.70;62.20;;;;;;5117672;28;20206;-80
2021/01/16 10:04:45;;;;;;;22.40;16.42;;;4.70;61.10;;;;;;5117675;28;20535;-80
2021/01/16 10:07:16;;;;;;;25.15;16.80;;;4.50;62.20;;;;;;5119767;28;20734;-81
2021/01/16 10:09:49;;;;;;;19.67;14.57;;;4.50;62.20;;;;;;5117875;28;20170;-80
2021/01/16 10:12:32;;;;;;;19.27;14.70;;;4.30;61.50;;;;;;5118306;28;20176;-80
2021/01/16 10:15:09;;;;;;;19.38;13.52;;;4.40;63.20;;;;;;5117152;28;20199;-80
2021/01/16 10:17:39;;;;;;;16.70;14.25;;;4.10;63.10;;;;;;5115958;28;20172;-80
2021/01/16 10:20:18;;;;;;;18.20;13.77;;;4.30;60.30;;;;;;5118245;28;20210;-81
2021/01/16 10:22:52;;;;;;;14.57;12.95;;;4.30;60.30;;;;;;5115500;28;20217;-80
2021/01/16 10:25:20;;;;;;;19.40;14.00;;;3.80;61.00;;;;;;5116628;28;20171;-80
2021/01/16 10:27:57;;;;;;;19.40;13.43;;;3.80;61.30;;;;;;5116957;28;20231;-80
2021/01/16 10:30:29;;;;;;;19.50;13.80;;;3.30;61.30;;;;;;5118771;28;20191;-80
2021/01/16 10:32:55;;;;;;;20.15;14.27;;;3.30;62.30;;;;;;5119466;28;20171;-80
2021/01/16 10:35:29;;;;;;;17.80;13.23;;;3.10;63.70;;;;;;5121856;28;20546;-80
2021/01/16 10:37:58;;;;;;;20.50;13.82;;;3.20;62.60;;;;;;5119401;28;20416;-80
2021/01/16 10:40:24;;;;;;;18.00;12.95;;;3.50;63.70;;;;;;5125392;28;20172;-80
2021/01/16 10:42:52;;;;;;;20.07;15.17;;;3.80;61.60;;;;;;5126198;28;20176;-80
2021/01/16 10:45:20;;;;;;;21.25;15.30;;;3.60;61.60;;;;;;5128962;28;20172;-80
2021/01/16 10:47:47;;;;;;;20.95;14.85;;;3.70;62.70;;;;;;5124907;28;20201;-81
2021/01/16 10:50:30;;;;;;;18.60;13.57;;;3.50;62.50;;;;;;5123187;28;20176;-81
2021/01/16 10:53:06;;;;;;;19.48;13.50;;;3.30;63.20;;;;;;5127135;28;20220;-81
2021/01/16 10:55:51;;;;;;;20.67;14.30;;;3.40;62.70;;;;;;5128270;28;20164;-81
2021/01/16 10:58:23;;;;;;;17.95;14.50;;;3.20;62.10;;;;;;5123666;28;20176;-78
2021/01/16 11:00:56;;;;;;;20.85;14.30;;;3.20;63.10;;;;;;5124951;28;20214;-78
2021/01/16 11:03:29;;;;;;;17.35;13.20;;;3.30;62.10;;;;;;5127800;28;20180;-80
2021/01/16 11:06:05;;;;;;;19.70;14.23;;;3.20;64.00;;;;;;5126607;28;20175;-80
2021/01/16 11:08:33;;;;;;;22.00;14.15;;;3.20;64.10;;;;;;5127142;28;20171;-79
2021/01/16 11:11:00;;;;;;;22.92;15.40;;;3.10;64.90;;;;;;5123784;28;20221;-80
2021/01/16 11:13:28;;;;;;;19.77;14.10;;;2.80;64.10;;;;;;5122130;28;20206;-80
2021/01/16 11:16:11;;;;;;;22.77;15.45;;;2.80;64.00;;;;;;5125608;28;20168;-80
2021/01/16 11:18:38;;;;;;;27.50;14.40;;;2.90;63.50;;;;;;5124659;28;20642;-79
2021/01/16 11:21:08;;;;;;;20.65;15.20;;;2.80;65.00;;;;;;5127583;28;20168;-80
2021/01/16 11:23:58;;;;;;;21.67;16.50;;;2.70;65.40;;;;;;5126048;28;20160;-79
2021/01/16 11:26:25;;;;;;;25.58;17.35;;;2.80;66.70;;;;;;5123068;28;20184;-79
2021/01/16 11:28:55;;;;;;;24.95;16.48;;;2.70;66.00;;;;;;5123406;28;20594;-79
2021/01/16 11:31:29;;;;;;;28.65;17.70;;;2.50;65.30;;;;;;5122739;28;20184;-79
2021/01/16 11:34:11;;;;;;;21.13;14.38;;;2.40;66.00;;;;;;5124018;28;20214;-78
2021/01/16 11:37:09;;;;;;;24.38;14.30;;;2.40;66.30;;;;;;5120947;28;20218;-79
2021/01/16 11:39:49;;;;;;;23.35;14.70;;;2.30;65.30;;;;;;5123046;28;20187;-80
2021/01/16 11:42:17;;;;;;;20.63;13.00;;;2.40;64.30;;;;;;5126086;28;20209;-80
2021/01/16 11:44:49;;;;;;;20.58;14.45;;;2.50;65.00;;;;;;5121340;28;20690;-80
2021/01/16 11:47:15;;;;;;;21.83;14.27;;;2.60;64.50;;;;;;5125105;28;20632;-79
2021/01/16 11:49:44;;;;;;;23.40;13.90;;;2.70;63.30;;;;;;5123659;28;20199;-79
2021/01/16 11:52:10;;;;;;;21.23;14.13;;;2.70;63.00;;;;;;5125471;28;20636;-80
2021/01/16 11:54:36;;;;;;;19.70;13.80;;;2.80;62.50;;;;;;5126082;28;20212;-79
2021/01/16 11:57:02;;;;;;;20.17;13.97;;;2.70;63.50;;;;;;5127232;28;20404;-80
2021/01/16 11:59:29;;;;;;;22.77;14.70;;;2.70;62.00;;;;;;5126531;28;20168;-80
2021/01/16 12:01:55;;;;;;;21.98;13.65;;;2.80;61.70;;;;;;5126664;28;20188;-80
2021/01/16 12:04:22;;;;;;;19.80;14.68;;;2.90;62.60;;;;;;5123744;28;20180;-80
2021/01/16 12:06:51;;;;;;;20.42;13.93;;;2.70;60.80;;;;;;5125935;28;20211;-80
2021/01/16 12:09:17;;;;;;;22.55;13.90;;;2.80;60.90;;;;;;5123317;28;20180;-80
2021/01/16 12:11:53;;;;;;;23.33;14.43;;;2.70;62.00;;;;;;5126125;28;20205;-80
2021/01/16 12:14:19;;;;;;;21.25;14.60;;;2.60;61.90;;;;;;5124920;28;20207;-80
2021/01/16 12:16:45;;;;;;;20.73;15.40;;;2.60;63.30;;;;;;5126452;28;20583;-80
2021/01/16 12:19:14;;;;;;;19.13;13.48;;;2.80;62.60;;;;;;5125028;28;20422;-80
2021/01/16 12:21:46;;;;;;;21.05;14.15;;;2.80;62.30;;;;;;5126022;28;20640;-80
2021/01/16 12:24:14;;;;;;;20.63;14.23;;;2.90;61.30;;;;;;5122796;28;20175;-80
2021/01/16 12:26:48;;;;;;;19.25;13.00;;;2.60;60.00;;;;;;5125728;28;20176;-80
2021/01/16 12:29:34;;;;;;;21.05;13.85;;;2.60;61.90;;;;;;5122724;28;20213;-80
2021/01/16 12:32:05;;;;;;;20.45;14.02;;;2.60;60.90;;;;;;5123295;28;20184;-80
2021/01/16 12:34:33;;;;;;;21.88;14.77;;;2.40;61.50;;;;;;5123940;28;20183;-80
2021/01/16 12:36:59;;;;;;;24.77;15.45;;;2.50;63.10;;;;;;5124196;28;20176;-80
2021/01/16 12:39:25;;;;;;;24.37;14.90;;;2.60;63.50;;;;;;5120376;28;20176;-80
2021/01/16 12:41:58;;;;;;;24.38;14.80;;;2.60;60.70;;;;;;5126619;28;20500;-80
2021/01/16 12:44:24;;;;;;;22.50;15.13;;;2.80;60.20;;;;;;5126682;28;20210;-80
2021/01/16 12:46:51;;;;;;;22.30;14.35;;;2.70;61.90;;;;;;5122868;28;20194;-80
2021/01/16 12:49:18;;;;;;;26.73;17.00;;;2.90;60.70;;;;;;5122812;28;20174;-80
2021/01/16 12:51:45;;;;;;;51.05;23.77;;;2.70;60.40;;;;;;5124946;28;20498;-80
2021/01/16 12:54:17;;;;;;;19.55;13.80;;;2.80;61.80;;;;;;5122430;28;20218;-81